createdAt,value
2019-02-03T00:02:25.870Z,98473.82
2019-02-03T00:04:57.807Z,98470.62
2019-02-03T00:07:28.044Z,98476.81
2019-02-03T00:10:31.419Z,98467.83
2019-02-03T00:13:06.004Z,98460.52
2019-02-03T00:15:58.710Z,98463.63
2019-02-03T00:18:37.154Z,98459.72
2019-02-03T00:21:13.676Z,98478.64
2019-02-03T00:23:55.232Z,98473.02
2019-02-03T00:26:49.584Z,98477.72
2019-02-03T00:29:20.192Z,98470.80
2019-02-03T00:31:59.333Z,98478.02
2019-02-03T00:34:31.086Z,98484.22
2019-02-03T00:37:15.313Z,98488.91
2019-02-03T00:39:43.650Z,98490.71
2019-02-03T00:42:20.197Z,98500.42
2019-02-03T00:44:55.198Z,98493.20
2019-02-03T00:47:25.873Z,98496.91
2019-02-03T00:49:56.711Z,98501.52
2019-02-03T00:52:27.636Z,98500.22
2019-02-03T00:54:58.477Z,98501.91
2019-02-03T00:57:28.982Z,98518.71
2019-02-03T00:59:59.657Z,98515.00
2019-02-03T01:02:31.503Z,98515.80
2019-02-03T01:05:01.833Z,98527.08
2019-02-03T01:07:32.687Z,98531.66
2019-02-03T01:10:10.215Z,98532.34
2019-02-03T01:12:42.635Z,98542.44
2019-02-03T01:15:13.282Z,98545.52
2019-02-03T01:17:44.880Z,98553.80
2019-02-03T01:20:16.868Z,98553.11
2019-02-03T01:22:47.854Z,98553.92
2019-02-03T01:25:19.054Z,98563.09
2019-02-03T01:27:49.589Z,98572.30
2019-02-03T01:30:21.863Z,98573.78
2019-02-03T01:32:52.805Z,98577.37
2019-02-03T01:35:23.505Z,98597.23
2019-02-03T01:37:53.837Z,98606.06
2019-02-03T01:40:24.662Z,98605.35
2019-02-03T01:42:57.838Z,98598.28
2019-02-03T01:45:32.652Z,98596.05
2019-02-03T01:48:03.435Z,98584.56
2019-02-03T01:50:35.325Z,98575.39
2019-02-03T01:53:06.123Z,98567.98
2019-02-03T01:55:37.059Z,98560.69
2019-02-03T01:58:08.810Z,98554.41
2019-02-03T02:00:41.188Z,98557.41
2019-02-03T02:03:14.420Z,98568.19
2019-02-03T02:05:44.767Z,98579.34
2019-02-03T02:08:15.274Z,98577.37
2019-02-03T02:10:45.979Z,98581.75
2019-02-03T02:13:18.107Z,98597.45
2019-02-03T02:15:48.661Z,98599.74
2019-02-03T02:18:18.745Z,98596.03
2019-02-03T02:20:49.186Z,98598.42
2019-02-03T02:23:19.786Z,98615.94
2019-02-03T02:25:51.933Z,98616.21
2019-02-03T02:28:22.263Z,98618.31
2019-02-03T02:30:52.503Z,98627.61
2019-02-03T02:33:22.682Z,98643.84
2019-02-03T02:35:54.032Z,98641.56
2019-02-03T02:38:26.451Z,98635.44
2019-02-03T02:40:57.414Z,98638.66
2019-02-03T02:43:27.761Z,98645.55
2019-02-03T02:45:58.443Z,98644.16
2019-02-03T02:48:28.593Z,98647.45
2019-02-03T02:50:59.138Z,98660.34
2019-02-03T02:53:29.268Z,98663.38
2019-02-03T02:55:59.480Z,98674.87
2019-02-03T02:58:29.686Z,98680.25
2019-02-03T03:00:59.557Z,98684.55
2019-02-03T03:03:29.540Z,98683.25
2019-02-03T03:05:59.502Z,98682.87
2019-02-03T03:08:29.723Z,98688.25
2019-02-03T03:10:59.548Z,98690.70
2019-02-03T03:13:29.619Z,98688.81
2019-02-03T03:15:59.465Z,98680.71
2019-02-03T03:18:29.495Z,98693.88
2019-02-03T03:20:59.851Z,98695.27
2019-02-03T03:23:30.187Z,98702.44
2019-02-03T03:26:00.910Z,98707.55
2019-02-03T03:28:31.036Z,98707.59
2019-02-03T03:31:01.213Z,98707.68
2019-02-03T03:33:31.409Z,98707.95
2019-02-03T03:36:01.532Z,98706.91
2019-02-03T03:38:32.549Z,98707.09
2019-02-03T03:41:03.356Z,98711.13
2019-02-03T03:43:33.646Z,98716.93
2019-02-03T03:46:06.443Z,98720.72
2019-02-03T03:48:35.859Z,98722.52
2019-02-03T03:51:06.701Z,98726.45
2019-02-03T03:53:37.733Z,98728.19
2019-02-03T03:56:08.288Z,98723.39
2019-02-03T03:58:38.427Z,98717.32
2019-02-03T04:01:08.556Z,98725.91
2019-02-03T04:03:38.563Z,98722.52
2019-02-03T04:06:09.167Z,98726.19
2019-02-03T04:08:45.424Z,98733.25
2019-02-03T04:11:11.790Z,98744.68
2019-02-03T04:13:41.954Z,98750.10
2019-02-03T04:16:13.889Z,98751.84
2019-02-03T04:18:48.932Z,98757.03
2019-02-03T04:21:21.060Z,98777.16
2019-02-03T04:23:53.106Z,98774.43
2019-02-03T04:26:27.165Z,98787.14
2019-02-03T04:28:57.915Z,98785.92
2019-02-03T04:31:28.744Z,98792.41
2019-02-03T04:34:00.310Z,98797.84
2019-02-03T04:36:31.151Z,98800.26
2019-02-03T04:39:02.229Z,98801.66
2019-02-03T04:41:32.831Z,98810.73
2019-02-03T04:44:03.713Z,98818.76
2019-02-03T04:46:34.944Z,98814.58
2019-02-03T04:49:05.905Z,98815.50
2019-02-03T04:51:37.594Z,98814.02
2019-02-03T04:54:11.264Z,98821.72
2019-02-03T04:56:42.148Z,98817.16
2019-02-03T04:59:16.398Z,98819.68
2019-02-03T05:01:47.013Z,98824.38
2019-02-03T05:04:17.364Z,98820.48
2019-02-03T05:06:48.284Z,98818.83
2019-02-03T05:09:18.444Z,98822.09
2019-02-03T05:11:48.594Z,98820.98
2019-02-03T05:14:19.042Z,98817.71
2019-02-03T05:16:49.104Z,98817.53
2019-02-03T05:19:19.507Z,98814.13
2019-02-03T05:21:50.321Z,98754.84
2019-02-03T05:24:20.610Z,98833.52
2019-02-03T05:26:50.761Z,98830.84
2019-02-03T05:29:21.252Z,98832.35
2019-02-03T05:31:51.401Z,98835.63
2019-02-03T05:34:21.631Z,98848.84
2019-02-03T05:36:52.309Z,98846.92
2019-02-03T05:39:25.322Z,98855.02
2019-02-03T05:41:54.428Z,98861.92
2019-02-03T05:44:25.066Z,98859.64
2019-02-03T05:46:56.715Z,98862.55
2019-02-03T05:49:27.140Z,98866.13
2019-02-03T05:51:59.926Z,98865.08
2019-02-03T05:54:29.986Z,98866.69
2019-02-03T05:57:01.182Z,98867.05
2019-02-03T05:59:31.125Z,98872.69
2019-02-03T06:02:01.740Z,98876.20
2019-02-03T06:04:32.530Z,98852.97
2019-02-03T06:07:02.885Z,98879.67
2019-02-03T06:09:36.692Z,98877.95
2019-02-03T06:12:05.807Z,98885.84
2019-02-03T06:14:36.099Z,98890.05
2019-02-03T06:17:06.910Z,98895.30
2019-02-03T06:19:37.091Z,98898.98
2019-02-03T06:22:07.686Z,98901.47
2019-02-03T06:24:38.939Z,98903.44
2019-02-03T06:27:09.320Z,98905.47
2019-02-03T06:29:39.580Z,98909.44
2019-02-03T06:32:09.885Z,98910.91
2019-02-03T06:34:40.990Z,98916.59
2019-02-03T06:37:11.738Z,98846.02
2019-02-03T06:39:48.605Z,98934.81
2019-02-03T06:42:14.932Z,98938.21
2019-02-03T06:44:49.206Z,98943.80
2019-02-03T06:47:25.774Z,98941.56
2019-02-03T06:49:56.348Z,98953.92
2019-02-03T06:52:26.686Z,98959.83
2019-02-03T06:54:58.679Z,98964.50
2019-02-03T06:57:29.304Z,98969.37
2019-02-03T06:59:59.828Z,98974.88
2019-02-03T07:02:30.305Z,98974.30
2019-02-03T07:05:00.419Z,98984.29
2019-02-03T07:07:30.496Z,98987.63
2019-02-03T07:10:01.134Z,98992.70
2019-02-03T07:12:32.235Z,98990.83
2019-02-03T07:15:02.596Z,98993.30
2019-02-03T07:17:34.069Z,99000.80
2019-02-03T07:20:08.013Z,99001.14
2019-02-03T07:22:38.537Z,99005.69
2019-02-03T07:25:09.410Z,99009.66
2019-02-03T07:27:39.704Z,99003.82
2019-02-03T07:30:14.175Z,99004.53
2019-02-03T07:32:44.792Z,98933.00
2019-02-03T07:35:15.711Z,99012.00
2019-02-03T07:37:46.310Z,99010.44
2019-02-03T07:40:16.516Z,98942.55
2019-02-03T07:42:47.209Z,99014.59
2019-02-03T07:45:17.580Z,99014.16
2019-02-03T07:47:48.434Z,99023.72
2019-02-03T07:50:19.616Z,99026.72
2019-02-03T07:52:52.466Z,99031.21
2019-02-03T07:55:22.774Z,99033.98
2019-02-03T07:57:53.523Z,99038.18
2019-02-03T08:00:26.034Z,99046.16
2019-02-03T08:02:57.083Z,99053.02
2019-02-03T08:05:27.128Z,99050.16
2019-02-03T08:07:57.579Z,99057.30
2019-02-03T08:10:29.770Z,99055.03
2019-02-03T08:12:59.904Z,99062.59
2019-02-03T08:15:30.495Z,99057.70
2019-02-03T08:18:01.071Z,99070.38
2019-02-03T08:20:32.659Z,99071.88
2019-02-03T08:23:06.829Z,99074.13
2019-02-03T08:25:37.007Z,99080.02
2019-02-03T08:28:07.352Z,99090.22
2019-02-03T08:30:39.454Z,99092.64
2019-02-03T08:33:10.380Z,99097.28
2019-02-03T08:35:41.999Z,99101.66
2019-02-03T08:38:13.005Z,99107.49
2019-02-03T08:40:48.914Z,99107.31
2019-02-03T08:43:20.806Z,99107.03
2019-02-03T08:45:52.299Z,99111.06
2019-02-03T08:48:23.469Z,99119.45
2019-02-03T08:50:56.360Z,99122.13
2019-02-03T08:53:27.666Z,99117.34
2019-02-03T08:56:08.006Z,99118.06
2019-02-03T08:58:40.739Z,99122.22
2019-02-03T09:01:35.200Z,99123.14
2019-02-03T09:04:10.339Z,99132.97
2019-02-03T09:06:49.629Z,99136.42
2019-02-03T09:09:22.757Z,99140.39
2019-02-03T09:12:15.778Z,99146.98
2019-02-03T09:14:52.898Z,99143.81
2019-02-03T09:18:31.618Z,99161.00
2019-02-03T09:20:48.440Z,99155.90
2019-02-03T09:23:21.375Z,99161.58
2019-02-03T09:25:58.552Z,99159.73
2019-02-03T09:28:29.825Z,99171.83
2019-02-03T09:31:04.053Z,99171.41
2019-02-03T09:33:35.301Z,99173.05
2019-02-03T09:36:10.493Z,99171.38
2019-02-03T09:38:46.029Z,99089.59
2019-02-03T09:41:17.011Z,99172.53
2019-02-03T09:43:48.512Z,99174.36
2019-02-03T09:46:22.741Z,99180.63
2019-02-03T09:48:54.475Z,99195.48
2019-02-03T09:51:29.890Z,99178.69
2019-02-03T09:54:01.084Z,99191.42
2019-02-03T09:56:33.909Z,99194.09
2019-02-03T09:59:05.073Z,99200.73
2019-02-03T10:01:41.133Z,99202.83
2019-02-03T10:04:14.731Z,99204.08
2019-02-03T10:06:46.496Z,99203.53
2019-02-03T10:09:18.213Z,99212.18
2019-02-03T10:11:49.429Z,99222.24
2019-02-03T10:14:20.230Z,99217.00
2019-02-03T10:16:52.181Z,99223.73
2019-02-03T10:19:22.972Z,99147.69
2019-02-03T10:21:57.066Z,99169.13
2019-02-03T10:24:41.688Z,99220.18
2019-02-03T10:27:09.472Z,99218.44
2019-02-03T10:29:46.751Z,99067.36
2019-02-03T10:32:19.846Z,99221.04
2019-02-03T10:34:52.596Z,99227.39
2019-02-03T10:37:23.935Z,99237.98
2019-02-03T10:40:12.789Z,99233.42
2019-02-03T10:42:47.693Z,99243.23
2019-02-03T10:45:47.116Z,99238.33
2019-02-03T10:48:24.658Z,99245.69
2019-02-03T10:51:16.077Z,99241.13
2019-02-03T10:53:57.553Z,99250.73
2019-02-03T10:56:32.145Z,99249.44
2019-02-03T10:59:07.857Z,99253.67
2019-02-03T11:01:45.076Z,99250.43
2019-02-03T11:04:23.755Z,99248.80
2019-02-03T11:06:57.231Z,99258.11
2019-02-03T11:09:30.410Z,99248.68
2019-02-03T11:12:02.158Z,99258.92
2019-02-03T11:14:43.416Z,99264.38
2019-02-03T11:17:17.497Z,99273.13
2019-02-03T11:19:52.788Z,99277.69
2019-02-03T11:22:51.127Z,99280.92
2019-02-03T11:25:27.851Z,99277.20
2019-02-03T11:28:01.687Z,99277.86
2019-02-03T11:30:32.889Z,99283.56
2019-02-03T11:33:08.750Z,99276.17
2019-02-03T11:35:41.840Z,99288.67
2019-02-03T11:38:16.929Z,99284.14
2019-02-03T11:40:50.631Z,99287.39
2019-02-03T11:43:23.954Z,99291.64
2019-02-03T11:45:55.780Z,99300.30
2019-02-03T11:48:29.249Z,99301.11
2019-02-03T11:51:05.258Z,99292.68
2019-02-03T11:53:49.736Z,99295.17
2019-02-03T11:56:22.393Z,99291.64
2019-02-03T11:59:01.743Z,99294.58
2019-02-03T12:01:38.588Z,99291.00
2019-02-03T12:04:20.852Z,99291.17
2019-02-03T12:06:53.432Z,99297.34
2019-02-03T12:09:29.943Z,99307.87
2019-02-03T12:12:09.159Z,99301.53
2019-02-03T12:14:42.914Z,99295.34
2019-02-03T12:17:33.799Z,99302.83
2019-02-03T12:20:15.763Z,99304.73
2019-02-03T12:22:53.311Z,99298.41
2019-02-03T12:25:43.245Z,99303.48
2019-02-03T12:28:18.093Z,99306.02
2019-02-03T12:30:51.750Z,99230.31
2019-02-03T12:33:23.466Z,99307.55
2019-02-03T12:36:06.539Z,99315.00
2019-02-03T12:38:40.946Z,99315.64
2019-02-03T12:41:15.371Z,99315.70
2019-02-03T12:44:04.784Z,99312.00
2019-02-03T12:46:38.844Z,99312.98
2019-02-03T12:49:15.819Z,99316.59
2019-02-03T12:51:47.030Z,99320.72
2019-02-03T12:54:20.620Z,99317.80
2019-02-03T12:56:51.484Z,99327.48
2019-02-03T12:59:26.080Z,99336.33
2019-02-03T13:01:56.561Z,99334.66
2019-02-03T13:04:28.857Z,99336.64
2019-02-03T13:07:01.132Z,99334.05
2019-02-03T13:09:39.124Z,99340.64
2019-02-03T13:12:24.704Z,99341.73
2019-02-03T13:14:47.651Z,99341.89
2019-02-03T13:17:20.421Z,99338.76
2019-02-03T13:19:52.461Z,99348.81
2019-02-03T13:22:24.058Z,99355.09
2019-02-03T13:24:55.123Z,99357.68
2019-02-03T13:27:26.588Z,99362.18
2019-02-03T13:30:01.183Z,99369.37
2019-02-03T13:32:37.487Z,99372.81
2019-02-03T13:35:12.388Z,99375.66
2019-02-03T13:37:47.973Z,99372.63
2019-02-03T13:40:20.740Z,99385.56
2019-02-03T13:42:55.180Z,99380.53
2019-02-03T13:45:27.543Z,99395.84
2019-02-03T13:48:00.944Z,99391.16
2019-02-03T13:50:31.781Z,99404.13
2019-02-03T13:53:05.966Z,99406.48
2019-02-03T13:55:39.269Z,99410.50
2019-02-03T13:58:19.630Z,99419.50
2019-02-03T14:00:51.625Z,99420.02
2019-02-03T14:03:29.927Z,99424.41
2019-02-03T14:06:04.639Z,99434.95
2019-02-03T14:08:35.845Z,99439.85
2019-02-03T14:11:07.276Z,99442.45
2019-02-03T14:13:39.938Z,99449.27
2019-02-03T14:16:11.405Z,99449.23
2019-02-03T14:18:43.584Z,99453.08
2019-02-03T14:21:16.591Z,99448.45
2019-02-03T14:23:49.456Z,99456.92
2019-02-03T14:26:20.457Z,99458.02
2019-02-03T14:28:54.234Z,99461.70
2019-02-03T14:31:26.996Z,99466.86
2019-02-03T14:33:58.317Z,99465.44
2019-02-03T14:36:31.112Z,99469.53
2019-02-03T14:39:04.338Z,99474.33
2019-02-03T14:41:36.384Z,99470.30
2019-02-03T14:44:09.553Z,99472.73
2019-02-03T14:46:41.904Z,99478.34
2019-02-03T14:49:15.489Z,99482.87
2019-02-03T14:51:47.070Z,99484.98
2019-02-03T14:54:29.529Z,99486.81
2019-02-03T14:57:01.280Z,99490.38
2019-02-03T14:59:32.775Z,99501.83
2019-02-03T15:02:06.584Z,99495.02
2019-02-03T15:04:37.684Z,99505.08
2019-02-03T15:07:09.882Z,99514.65
2019-02-03T15:09:40.875Z,99520.66
2019-02-03T15:12:12.558Z,99531.53
2019-02-03T15:14:42.684Z,99531.52
2019-02-03T15:17:16.297Z,99534.28
2019-02-03T15:19:47.005Z,99544.70
2019-02-03T15:22:18.141Z,99551.03
2019-02-03T15:24:51.586Z,99546.33
2019-02-03T15:27:25.429Z,99552.91
2019-02-03T15:29:56.592Z,99566.08
2019-02-03T15:32:27.622Z,99569.62
2019-02-03T15:34:58.518Z,99570.45
2019-02-03T15:37:31.758Z,99577.27
2019-02-03T15:40:03.371Z,99493.67
2019-02-03T15:42:34.039Z,99584.52
2019-02-03T15:45:06.059Z,99589.57
2019-02-03T15:47:38.821Z,99599.79
2019-02-03T15:50:20.311Z,99598.00
2019-02-03T15:52:52.454Z,99603.70
2019-02-03T15:55:31.344Z,99610.69
2019-02-03T15:58:03.507Z,99614.73
2019-02-03T16:00:41.207Z,99613.73
2019-02-03T16:03:13.586Z,99622.88
2019-02-03T16:05:47.340Z,99623.67
2019-02-03T16:08:21.647Z,99624.35
2019-02-03T16:11:02.485Z,99634.90
2019-02-03T16:13:37.303Z,99633.27
2019-02-03T16:16:12.042Z,99645.63
2019-02-03T16:18:49.271Z,99642.39
2019-02-03T16:21:21.580Z,99647.91
2019-02-03T16:23:52.882Z,99654.20
2019-02-03T16:26:26.175Z,99652.77
2019-02-03T16:28:57.074Z,99661.83
2019-02-03T16:31:35.627Z,99674.64
2019-02-03T16:34:11.142Z,99672.86
2019-02-03T16:36:45.375Z,99679.20
2019-02-03T16:39:20.204Z,99682.59
2019-02-03T16:41:54.323Z,99692.97
2019-02-03T16:44:26.456Z,99705.13
2019-02-03T16:46:56.977Z,99702.56
2019-02-03T16:49:28.462Z,99705.45
2019-02-03T16:52:05.697Z,99717.94
2019-02-03T16:54:37.822Z,99715.36
2019-02-03T16:57:08.620Z,99726.19
2019-02-03T16:59:40.738Z,99733.97
2019-02-03T17:02:14.817Z,99737.35
2019-02-03T17:04:46.937Z,99747.39
2019-02-03T17:07:17.815Z,99744.14
2019-02-03T17:09:48.322Z,99756.31
2019-02-03T17:12:19.346Z,99755.17
2019-02-03T17:14:50.549Z,99765.23
2019-02-03T17:17:22.568Z,99769.45
2019-02-03T17:19:53.021Z,99767.81
2019-02-03T17:22:23.559Z,99775.14
2019-02-03T17:24:54.626Z,99777.58
2019-02-03T17:27:26.302Z,99779.69
2019-02-03T17:29:56.696Z,99786.31
2019-02-03T17:32:28.295Z,99791.53
2019-02-03T17:34:59.418Z,99801.89
2019-02-03T17:37:29.409Z,99803.67
2019-02-03T17:40:00.052Z,99810.66
2019-02-03T17:42:30.401Z,99810.00
2019-02-03T17:45:00.427Z,99815.03
2019-02-03T17:47:33.364Z,99818.44
2019-02-03T17:50:07.664Z,99826.54
2019-02-03T17:52:39.294Z,99819.42
2019-02-03T17:55:15.193Z,99829.97
2019-02-03T17:57:52.049Z,99828.03
2019-02-03T18:00:52.895Z,99840.52
2019-02-03T18:03:29.052Z,99843.41
2019-02-03T18:06:09.829Z,99849.60
2019-02-03T18:08:43.061Z,99853.81
2019-02-03T18:11:17.758Z,99859.64
2019-02-03T18:13:50.356Z,99870.02
2019-02-03T18:16:21.467Z,99868.56
2019-02-03T18:18:55.275Z,99874.72
2019-02-03T18:21:28.771Z,99878.13
2019-02-03T18:24:01.865Z,99882.02
2019-02-03T18:26:34.243Z,99889.80
2019-02-03T18:29:10.222Z,99896.62
2019-02-03T18:31:40.678Z,99902.63
2019-02-03T18:34:14.759Z,99903.28
2019-02-03T18:36:44.960Z,99908.95
2019-02-03T18:39:15.579Z,99913.36
2019-02-03T18:41:46.071Z,99912.36
2019-02-03T18:44:17.237Z,99912.69
2019-02-03T18:46:48.081Z,99921.29
2019-02-03T18:49:24.922Z,99844.86
2019-02-03T18:52:13.824Z,99930.07
2019-02-03T18:55:13.264Z,99845.82
2019-02-03T18:57:48.690Z,99930.57
2019-02-03T19:00:22.740Z,99850.52
2019-02-03T19:02:58.272Z,99936.07
2019-02-03T19:05:38.316Z,99935.92
2019-02-03T19:08:28.953Z,99941.28
2019-02-03T19:11:03.405Z,99940.62
2019-02-03T19:13:43.393Z,99953.94
2019-02-03T19:17:08.649Z,99951.49
2019-02-03T19:19:44.479Z,99959.77
2019-02-03T19:22:22.554Z,99961.88
2019-02-03T19:24:57.194Z,99963.15
2019-02-03T19:27:42.579Z,99972.26
2019-02-03T19:30:19.987Z,99978.72
2019-02-03T19:32:57.962Z,99812.98
2019-02-03T19:35:33.141Z,99987.98
2019-02-03T19:38:19.775Z,99989.12
2019-02-03T19:40:56.857Z,99993.84
2019-02-03T19:43:42.038Z,99990.94
2019-02-03T19:46:15.190Z,99991.57
2019-02-03T19:48:54.340Z,100004.06
2019-02-03T19:51:26.366Z,100012.34
2019-02-03T19:53:59.060Z,100015.91
2019-02-03T19:56:29.263Z,99935.48
2019-02-03T19:59:06.828Z,100019.62
2019-02-03T20:01:57.918Z,100020.91
2019-02-03T20:04:35.799Z,99937.78
2019-02-03T20:07:09.435Z,99880.94
2019-02-03T20:09:39.706Z,100028.58
2019-02-03T20:12:10.994Z,100030.39
2019-02-03T20:14:45.839Z,100030.87
2019-02-03T20:17:19.275Z,100035.43
2019-02-03T20:19:52.003Z,100039.00
2019-02-03T20:22:23.548Z,100043.53
2019-02-03T20:24:53.984Z,100045.97
2019-02-03T20:27:24.695Z,100057.33
2019-02-03T20:29:54.841Z,100058.63
2019-02-03T20:32:26.100Z,100069.31
2019-02-03T20:34:56.706Z,100063.16
2019-02-03T20:37:27.012Z,100065.12
2019-02-03T20:40:02.233Z,100065.90
2019-02-03T20:42:30.127Z,100074.66
2019-02-03T20:45:06.109Z,100077.58
2019-02-03T20:47:39.392Z,100076.73
2019-02-03T20:50:12.470Z,100080.47
2019-02-03T20:52:46.931Z,100087.11
2019-02-03T20:55:21.819Z,100090.67
2019-02-03T20:57:52.891Z,100096.05
2019-02-03T21:00:34.283Z,100104.41
2019-02-03T21:03:10.821Z,100107.28
2019-02-03T21:05:41.513Z,100117.95
2019-02-03T21:08:16.920Z,100117.12
2019-02-03T21:10:49.332Z,100120.00
2019-02-03T21:13:23.626Z,100123.87
2019-02-03T21:15:58.797Z,100127.08
2019-02-03T21:18:29.562Z,100131.28
2019-02-03T21:21:02.821Z,100137.22
2019-02-03T21:23:33.113Z,100145.77
2019-02-03T21:26:16.357Z,100156.67
2019-02-03T21:28:43.004Z,100156.53
2019-02-03T21:31:15.219Z,100162.21
2019-02-03T21:33:47.978Z,100165.02
2019-02-03T21:36:24.711Z,100175.69
2019-02-03T21:38:57.402Z,100175.08
2019-02-03T21:41:30.250Z,100170.37
2019-02-03T21:44:01.660Z,100171.39
2019-02-03T21:46:32.370Z,100176.98
2019-02-03T21:49:03.900Z,100179.11
2019-02-03T21:51:37.237Z,100190.58
2019-02-03T21:54:07.984Z,100194.13
2019-02-03T21:56:40.208Z,100206.41
2019-02-03T21:59:11.358Z,100200.64
2019-02-03T22:01:46.039Z,100205.75
2019-02-03T22:04:20.093Z,100208.07
2019-02-03T22:06:52.019Z,100207.00
2019-02-03T22:09:23.591Z,100211.62
2019-02-03T22:11:54.371Z,100218.55
2019-02-03T22:14:24.658Z,100218.09
2019-02-03T22:16:55.052Z,100221.39
2019-02-03T22:19:26.470Z,100224.43
2019-02-03T22:21:57.124Z,100237.34
2019-02-03T22:24:27.659Z,100237.66
2019-02-03T22:26:58.117Z,100239.30
2019-02-03T22:29:28.512Z,100237.25
2019-02-03T22:31:59.574Z,100242.80
2019-02-03T22:34:30.218Z,100249.83
2019-02-03T22:37:00.847Z,100252.14
2019-02-03T22:39:32.567Z,100262.38
2019-02-03T22:42:04.091Z,100267.45
2019-02-03T22:44:35.051Z,100274.33
2019-02-03T22:47:05.737Z,100281.28
2019-02-03T22:49:36.808Z,100282.36
2019-02-03T22:52:08.559Z,100284.90
2019-02-03T22:54:38.918Z,100278.61
2019-02-03T22:57:10.198Z,100278.83
2019-02-03T22:59:41.578Z,100274.66
2019-02-03T23:02:13.239Z,100283.73
2019-02-03T23:04:44.249Z,100297.05
2019-02-03T23:07:14.916Z,100293.38
2019-02-03T23:09:46.424Z,100300.12
2019-02-03T23:12:21.765Z,100303.55
2019-02-03T23:14:52.522Z,100306.86
2019-02-03T23:17:23.290Z,100304.99
2019-02-03T23:19:56.900Z,100311.88
2019-02-03T23:22:36.468Z,100309.83
2019-02-03T23:25:07.688Z,100316.68
2019-02-03T23:27:38.764Z,100319.13
2019-02-03T23:30:13.886Z,100322.41
2019-02-03T23:32:44.302Z,100320.35
2019-02-03T23:35:19.244Z,100325.27
2019-02-03T23:37:49.460Z,100339.95
2019-02-03T23:40:20.854Z,100339.90
2019-02-03T23:42:51.492Z,100345.47
2019-02-03T23:45:21.940Z,100343.31
2019-02-03T23:47:52.527Z,100349.73
2019-02-03T23:50:23.231Z,100351.63
2019-02-03T23:52:53.624Z,100353.70
2019-02-03T23:55:24.060Z,100352.83
2019-02-03T23:57:55.464Z,100263.08
